| time (UTC) | temp F | wind direction | speed MPH | gust MPH | rain 1hr in | rain 24hr in | rain mn in | humidity % | barometer mb |
| 20260902104542 | 66 | 236 | 18.0 | 28.0 | 0.01 | 0.04 | 0.03 | 92 | 1018.8 |
| 20260902103039 | 66 | 241 | 19.0 | 26.0 | 0.02 | 0.04 | 0.03 | 91 | 1018.7 |
| 20260902101535 | 66 | 233 | 17.0 | 25.0 | 0.01 | 0.03 | 0.02 | 93 | 1018.6 |
| 20260902100035 | 66 | 234 | 15.0 | 23.0 | 0.01 | 0.03 | 0.02 | 93 | 1018.6 |
| 20260902094531 | 65 | 219 | 17.0 | 25.0 | 0.01 | 0.03 | 0.02 | 93 | 1018.4 |
| 20260902093027 | 65 | 222 | 16.0 | 23.0 | 0.00 | 0.02 | 0.02 | 93 | 1018.4 |
| 20260902091527 | 66 | 206 | 17.0 | 28.0 | 0.00 | 0.02 | 0.02 | 93 | 1018.4 |
| 20260902090023 | 65 | 219 | 16.0 | 25.0 | 0.00 | 0.02 | 0.02 | 93 | 1018.2 |
| 20260902084529 | 64 | 203 | 18.0 | 27.0 | 0.00 | 0.02 | 0.02 | 93 | 1018.2 |
| 20260902083021 | 64 | 201 | 17.0 | 28.0 | 0.00 | 0.02 | 0.02 | 93 | 1018.0 |
| 20260902081521 | 64 | 217 | 18.0 | 29.0 | 0.00 | 0.02 | 0.02 | 93 | 1018.0 |
| 20260902080018 | 64 | 199 | 19.0 | 29.0 | 0.00 | 0.02 | 0.02 | 93 | 1017.9 |
| 20260902074517 | 64 | 192 | 19.0 | 26.0 | 0.01 | 0.02 | 0.02 | 93 | 1017.9 |
| 20260902073016 | 64 | 217 | 18.0 | 26.0 | 0.02 | 0.02 | 0.02 | 93 | 1017.9 |
| 20260902071515 | 63 | 222 | 18.0 | 29.0 | 0.02 | 0.02 | 0.02 | 92 | 1018.0 |
| 20260902070010 | 63 | 219 | 17.0 | 27.0 | 0.02 | 0.02 | 0.02 | 92 | 1017.8 |
| 20260902064521 | 63 | 202 | 18.0 | 25.0 | 0.00 | 0.01 | 0.00 | 91 | 1017.9 |
| 20260902063008 | 63 | 201 | 18.0 | 25.0 | 0.00 | 0.01 | 0.00 | 91 | 1017.8 |
| 20260902061505 | 63 | 181 | 17.0 | 25.0 | 0.00 | 0.01 | 0.00 | 90 | 1017.9 |
| 20260902060005 | 63 | 190 | 17.0 | 25.0 | 0.00 | 0.01 | 0.00 | 89 | 1017.8 |
| 20260902054506 | 63 | 197 | 20.0 | 27.0 | 0.00 | 0.01 | 0.00 | 89 | 1018.0 |
| 20260902053100 | 62 | 207 | 17.0 | 26.0 | 0.00 | 0.01 | 0.00 | 90 | 1018.3 |
| 20260902051600 | 62 | 204 | 14.0 | 23.0 | 0.00 | 0.01 | 0.00 | 91 | 1018.2 |
| 20260902050057 | 62 | 175 | 14.0 | 21.0 | 0.00 | 0.01 | 0.00 | 91 | 1018.2 |
| 20260902044555 | 62 | 222 | 16.0 | 24.0 | 0.00 | 0.01 | 0.00 | 90 | 1018.5 |
| 20260902043108 | 62 | 190 | 15.0 | 24.0 | 0.00 | 0.01 | 0.00 | 89 | 1018.5 |
| 20260902041603 | 62 | 195 | 15.0 | 21.0 | 0.00 | 0.01 | 0.00 | 86 | 1018.6 |
| 20260902040049 | 62 | 188 | 14.0 | 27.0 | 0.00 | 0.01 | 0.00 | 86 | 1018.9 |
| 20260902034551 | 63 | 174 | 17.0 | 24.0 | 0.00 | 0.01 | 0.00 | 85 | 1018.9 |
| 20260902033050 | 62 | 167 | 14.0 | 21.0 | 0.00 | 0.01 | 0.00 | 87 | 1019.0 |
| 20260902031544 | 62 | 173 | 12.0 | 18.0 | 0.00 | 0.01 | 0.00 | 88 | 1019.2 |
| 20260902030045 | 61 | 189 | 9.0 | 14.0 | 0.00 | 0.01 | 0.00 | 87 | 1019.2 |
| 20260902024540 | 61 | 167 | 8.0 | 16.0 | 0.00 | 0.01 | 0.00 | 86 | 1019.4 |
| 20260902023038 | 61 | 202 | 11.0 | 19.0 | 0.00 | 0.01 | 0.00 | 86 | 1019.6 |
| 20260902021537 | 62 | 209 | 15.0 | 23.0 | 0.00 | 0.01 | 0.00 | 85 | 1019.8 |
| 20260902020034 | 63 | 210 | 10.0 | 16.0 | 0.00 | 0.01 | 0.00 | 87 | 1019.9 |
| 20260902014534 | 63 | 214 | 11.0 | 16.0 | 0.00 | 0.01 | 0.00 | 86 | 1019.9 |
| 20260902013031 | 63 | 181 | 11.0 | 18.0 | 0.00 | 0.01 | 0.00 | 86 | 1020.1 |
| 20260902011529 | 62 | 199 | 11.0 | 15.0 | 0.00 | 0.01 | 0.00 | 87 | 1020.4 |
| 20260902010033 | 62 | 202 | 9.0 | 15.0 | 0.00 | 0.01 | 0.00 | 87 | 1020.4 |
| 20260902004529 | 62 | 210 | 9.0 | 15.0 | 0.00 | 0.01 | 0.00 | 86 | 1020.6 |
| 20260902003104 | 62 | 215 | 9.0 | 15.0 | 0.00 | 0.01 | 0.00 | 86 | 1020.6 |
| 20260902001522 | 62 | 197 | 9.0 | 14.0 | 0.00 | 0.01 | 0.00 | 86 | 1020.6 |
| 20260902000030 | 62 | 201 | 9.0 | 14.0 | 0.00 | 0.01 | 0.00 | 87 | 1020.9 |
| 20260901234517 | 62 | 201 | 8.0 | 14.0 | 0.00 | 0.01 | 0.00 | 86 | 1020.8 |
| 20260901233016 | 62 | 178 | 9.0 | 13.0 | 0.00 | 0.01 | 0.00 | 86 | 1020.9 |
| 20260901231514 | 62 | 193 | 9.0 | 14.0 | 0.00 | 0.01 | 0.00 | 86 | 1021.1 |
| 20260901230016 | 62 | 209 | 10.0 | 15.0 | 0.00 | 0.01 | 0.00 | 86 | 1021.2 |
| 20260901224511 | 62 | 214 | 10.0 | 14.0 | 0.00 | 0.01 | 0.01 | 87 | 1021.2 |
| 20260901223011 | 62 | 197 | 7.0 | 12.0 | 0.00 | 0.01 | 0.01 | 88 | 1021.3 |
| 20260901221510 | 62 | 217 | 7.0 | 10.0 | 0.00 | 0.01 | 0.01 | 88 | 1021.3 |
| 20260901220018 | 61 | 196 | 8.0 | 10.0 | 0.00 | 0.01 | 0.01 | 88 | 1021.5 |
| 20260901214508 | 61 | 195 | 7.0 | 12.0 | 0.00 | 0.01 | 0.01 | 88 | 1021.3 |
| 20260901213007 | 61 | 199 | 8.0 | 13.0 | 0.00 | 0.01 | 0.01 | 88 | 1021.2 |
| 20260901211507 | 61 | 202 | 8.0 | 12.0 | 0.00 | 0.01 | 0.01 | 89 | 1021.3 |
| 20260901210005 | 61 | 197 | 6.0 | 10.0 | 0.00 | 0.01 | 0.01 | 90 | 1021.4 |
| 20260901204504 | 60 | 212 | 5.0 | 8.0 | 0.00 | 0.01 | 0.01 | 91 | 1021.6 |
| 20260901203004 | 60 | 193 | 4.0 | 7.0 | 0.00 | 0.01 | 0.01 | 90 | 1021.6 |
| 20260901201502 | 60 | 213 | 4.0 | 6.0 | 0.00 | 0.01 | 0.01 | 89 | 1021.9 |
| 20260901200101 | 60 | 214 | 4.0 | 5.0 | 0.00 | 0.01 | 0.01 | 88 | 1021.9 |
| 20260901200001 | 60 | 209 | 4.0 | 5.0 | 0.00 | 0.01 | 0.01 | 88 | 1021.9 |
| 20260901194605 | 60 | 234 | 3.0 | 4.0 | 0.01 | 0.01 | 0.01 | 88 | 1021.6 |
| 20260901193106 | 60 | 240 | 3.0 | 4.0 | 0.01 | 0.01 | 0.01 | 88 | 1021.5 |
| 20260901191608 | 60 | 229 | 3.0 | 8.0 | 0.01 | 0.01 | 0.01 | 87 | 1021.6 |
| 20260901190124 | 60 | 234 | 10.0 | 15.0 | 0.01 | 0.01 | 0.01 | 85 | 1022.0 |
| 20260901184555 | 60 | 257 | 9.0 | 16.0 | 0.00 | 0.00 | 0.00 | 86 | 1022.0 |
| 20260901183054 | 60 | 288 | 12.0 | 18.0 | 0.00 | 0.00 | 0.00 | 86 | 1021.9 |
| 20260901181558 | 63 | 257 | 13.0 | 20.0 | 0.00 | 0.00 | 0.00 | 82 | 1022.0 |
| 20260901180053 | 65 | 202 | 7.0 | 11.0 | 0.00 | 0.00 | 0.00 | 80 | 1022.1 |
| 20260901174555 | 65 | 194 | 7.0 | 12.0 | 0.00 | 0.00 | 0.00 | 79 | 1022.1 |
| 20260901173051 | 66 | 220 | 7.0 | 12.0 | 0.00 | 0.00 | 0.00 | 78 | 1022.2 |
| 20260901171607 | 69 | 222 | 7.0 | 10.0 | 0.00 | 0.00 | 0.00 | 72 | 1022.3 |
| 20260901170055 | 71 | 226 | 6.0 | 10.0 | 0.00 | 0.00 | 0.00 | 74 | 1022.3 |
| 20260901164600 | 67 | 225 | 7.0 | 11.0 | 0.00 | 0.00 | 0.00 | 78 | 1022.4 |
| 20260901163105 | 67 | 208 | 7.0 | 12.0 | 0.00 | 0.00 | 0.00 | 79 | 1022.3 |
| 20260901161545 | 66 | 228 | 9.0 | 13.0 | 0.00 | 0.00 | 0.00 | 78 | 1022.4 |
| 20260901160047 | 67 | 217 | 9.0 | 13.0 | 0.00 | 0.00 | 0.00 | 77 | 1022.4 |
| 20260901154646 | 68 | 219 | 7.0 | 13.0 | 0.00 | 0.00 | 0.00 | 76 | 1022.4 |
| 20260901153044 | 68 | 201 | 9.0 | 14.0 | 0.00 | 0.00 | 0.00 | 75 | 1022.3 |
| 20260901151544 | 69 | 207 | 9.0 | 15.0 | 0.00 | 0.00 | 0.00 | 72 | 1022.4 |
| 20260901150042 | 71 | 221 | 10.0 | 16.0 | 0.00 | 0.00 | 0.00 | 71 | 1022.4 |
| 20260901144542 | 71 | 196 | 8.0 | 14.0 | 0.00 | 0.00 | 0.00 | 69 | 1022.4 |
| 20260901143041 | 73 | 229 | 10.0 | 15.0 | 0.00 | 0.00 | 0.00 | 69 | 1022.5 |
| 20260901141540 | 72 | 213 | 8.0 | 15.0 | 0.00 | 0.00 | 0.00 | 68 | 1022.5 |
| 20260901140041 | 72 | 216 | 10.0 | 16.0 | 0.00 | 0.00 | 0.00 | 66 | 1022.4 |
| 20260901134538 | 76 | 220 | 10.0 | 17.0 | 0.00 | 0.00 | 0.00 | 62 | 1022.4 |
| 20260901133042 | 75 | 219 | 12.0 | 18.0 | 0.00 | 0.00 | 0.00 | 64 | 1022.5 |
| 20260901131536 | 75 | 214 | 10.0 | 15.0 | 0.00 | 0.00 | 0.00 | 60 | 1022.6 |
| 20260901130034 | 76 | 218 | 10.0 | 14.0 | 0.00 | 0.00 | 0.00 | 62 | 1022.7 |
| 20260901124533 | 73 | 217 | 8.0 | 12.0 | 0.00 | 0.00 | 0.00 | 67 | 1022.6 |
| 20260901123031 | 75 | 222 | 8.0 | 12.0 | 0.00 | 0.00 | 0.00 | 64 | 1022.8 |
| 20260901121537 | 75 | 214 | 7.0 | 10.0 | 0.00 | 0.00 | 0.00 | 63 | 1022.7 |
| 20260901120027 | 74 | 207 | 8.0 | 11.0 | 0.00 | 0.00 | 0.00 | 66 | 1022.7 |
| 20260901114526 | 72 | 204 | 6.0 | 12.0 | 0.00 | 0.00 | 0.00 | 70 | 1022.8 |
| 20260901113025 | 71 | 216 | 8.0 | 12.0 | 0.00 | 0.00 | 0.00 | 67 | 1022.9 |
| 20260901111525 | 73 | 230 | 9.0 | 12.0 | 0.00 | 0.00 | 0.00 | 65 | 1022.9 |
| 20260901110023 | 74 | 209 | 9.0 | 16.0 | 0.00 | 0.00 | 0.00 | 67 | 1022.9 |